Sanford, Colorado
Current Conditions -  °F | °C
As of 7:52 PM on Saturday 25 Oct 2014 (Local Time) from KALS Reporting Station
Clear Clear  
Wind Chill: 53°   Ceiling: Unl
Heat Index: 53°   Visibility: 10mi
Dew Point: 24°   Wind: 9mph
Humidity: 32%   Direction: 240°WSW
Pressure: 30.25"   Gusts: NA
Location:  37.26°N, 105.9°W
Report Text: KALS 260152Z AUTO 24008KT 10SM CLR 12/M04 A3025 RMK AO2 SLP220 T01171044
Loading
Personal Weather Stations






























Interactive Weather Map
Tropical Storm Tracking
New forecast layout! Learn more

10-Day Weather Forecast

Advertisements
Track Severe Weather on mobile